createdAt,value
2023-09-23T00:00:06.287Z,0.00
2023-09-23T00:00:37.747Z,0.00
2023-09-23T00:01:08.676Z,0.00
2023-09-23T00:01:41.659Z,0.00
2023-09-23T00:02:12.958Z,0.00
2023-09-23T00:02:45.792Z,0.00
2023-09-23T00:03:16.673Z,0.00
2023-09-23T00:03:49.767Z,0.00
2023-09-23T00:04:20.709Z,0.00
2023-09-23T00:04:53.716Z,0.00
2023-09-23T00:05:25.040Z,0.00
2023-09-23T00:05:57.644Z,0.00
2023-09-23T00:06:28.547Z,0.00
2023-09-23T00:07:01.689Z,0.00
2023-09-23T00:07:32.776Z,0.00
2023-09-23T00:08:05.553Z,0.00
2023-09-23T00:08:36.682Z,0.00
2023-09-23T00:09:09.650Z,0.00
2023-09-23T00:09:40.628Z,0.00
2023-09-23T00:10:13.784Z,0.00
2023-09-23T00:10:44.769Z,0.00
2023-09-23T00:11:17.616Z,0.00
2023-09-23T00:11:48.628Z,0.00
2023-09-23T00:12:21.738Z,0.00
2023-09-23T00:12:52.778Z,0.00
2023-09-23T00:13:25.400Z,0.00
2023-09-23T00:13:56.658Z,0.00
2023-09-23T00:14:12.938Z,0.00
2023-09-23T00:14:44.604Z,0.00
2023-09-23T00:15:17.776Z,0.00
2023-09-23T00:15:48.845Z,0.00
2023-09-23T00:16:20.585Z,0.00
2023-09-23T00:16:53.688Z,0.00
2023-09-23T00:17:24.802Z,0.00
2023-09-23T00:17:57.692Z,0.00
2023-09-23T00:18:28.615Z,0.00
2023-09-23T00:19:01.740Z,0.00
2023-09-23T00:19:32.733Z,0.00
2023-09-23T00:20:05.631Z,0.00
2023-09-23T00:20:36.645Z,0.00
2023-09-23T00:21:09.574Z,0.00
2023-09-23T00:21:40.603Z,0.00
2023-09-23T00:22:13.555Z,0.00
2023-09-23T00:22:44.677Z,0.00
2023-09-23T00:23:17.604Z,0.00
2023-09-23T00:23:48.578Z,0.00
2023-09-23T00:24:21.417Z,0.00
2023-09-23T00:24:52.787Z,0.00
2023-09-23T00:25:25.748Z,0.00
2023-09-23T00:25:56.814Z,0.00
2023-09-23T00:26:29.426Z,0.00
2023-09-23T00:27:00.692Z,0.00
2023-09-23T00:27:33.334Z,0.00
2023-09-23T00:28:04.654Z,0.00
2023-09-23T00:28:37.409Z,0.00
2023-09-23T00:29:08.615Z,0.00
2023-09-23T00:29:41.438Z,0.00
2023-09-23T00:30:13.740Z,0.00
2023-09-23T00:30:45.523Z,0.00
2023-09-23T00:31:16.626Z,0.00
2023-09-23T00:31:49.619Z,0.00
2023-09-23T00:32:20.840Z,0.00
2023-09-23T00:32:53.517Z,0.00
2023-09-23T00:33:24.659Z,0.00
2023-09-23T00:33:57.644Z,0.00
2023-09-23T00:34:28.528Z,0.00
2023-09-23T00:35:02.265Z,0.00
2023-09-23T00:35:32.674Z,0.00
2023-09-23T00:36:05.621Z,0.00
2023-09-23T00:36:36.643Z,0.00
2023-09-23T00:37:09.428Z,0.00
2023-09-23T00:37:40.677Z,0.00
2023-09-23T00:38:13.746Z,0.00
2023-09-23T00:38:44.777Z,0.00
2023-09-23T00:39:17.486Z,0.00
2023-09-23T00:39:48.777Z,0.00
2023-09-23T00:40:21.935Z,0.00
2023-09-23T00:40:52.748Z,0.00
2023-09-23T00:41:25.533Z,0.00
2023-09-23T00:41:56.583Z,0.00
2023-09-23T00:42:29.590Z,0.00
2023-09-23T00:43:00.822Z,0.00
2023-09-23T00:43:33.476Z,0.00
2023-09-23T00:44:04.657Z,0.00
2023-09-23T00:44:37.467Z,0.00
2023-09-23T00:45:09.975Z,0.00
2023-09-23T00:45:41.833Z,0.00
2023-09-23T00:46:12.758Z,0.00
2023-09-23T00:46:45.655Z,0.00
2023-09-23T00:47:16.702Z,0.00
2023-09-23T00:47:49.500Z,0.00
2023-09-23T00:48:20.627Z,0.00
2023-09-23T00:48:53.527Z,0.00
2023-09-23T00:49:24.579Z,0.00
2023-09-23T00:49:57.711Z,0.00
2023-09-23T00:50:29.058Z,0.00
2023-09-23T00:51:01.364Z,0.00
2023-09-23T00:51:32.614Z,0.00
2023-09-23T00:52:05.618Z,0.00
2023-09-23T00:52:36.895Z,0.00
2023-09-23T00:53:09.531Z,0.00
2023-09-23T00:53:40.624Z,0.00
2023-09-23T00:54:13.718Z,0.00
2023-09-23T00:54:44.759Z,0.00
2023-09-23T00:55:17.622Z,0.00
2023-09-23T00:55:48.707Z,0.00
2023-09-23T00:56:21.339Z,0.00
2023-09-23T00:56:52.576Z,0.00
2023-09-23T00:57:25.782Z,0.00
2023-09-23T00:57:56.647Z,0.00
2023-09-23T00:58:29.402Z,0.00
2023-09-23T00:59:00.706Z,0.00
2023-09-23T00:59:33.637Z,0.00
2023-09-23T01:00:06.254Z,0.00
2023-09-23T01:00:37.493Z,0.00
2023-09-23T01:01:08.704Z,0.00
2023-09-23T01:01:41.662Z,0.00
2023-09-23T01:02:12.669Z,0.00
2023-09-23T01:02:45.593Z,0.00
2023-09-23T01:03:16.951Z,0.00
2023-09-23T01:03:49.469Z,0.00
2023-09-23T01:04:20.628Z,0.00
2023-09-23T01:04:53.627Z,0.00
2023-09-23T01:05:25.186Z,0.00
2023-09-23T01:05:57.363Z,0.00
2023-09-23T01:06:28.737Z,0.00
2023-09-23T01:07:01.814Z,0.00
2023-09-23T01:07:32.579Z,0.00
2023-09-23T01:08:05.936Z,0.00
2023-09-23T01:08:36.692Z,0.00
2023-09-23T01:09:09.609Z,0.00
2023-09-23T01:09:40.647Z,0.00
2023-09-23T01:10:13.968Z,0.00
2023-09-23T01:10:44.822Z,0.00
2023-09-23T01:11:17.469Z,0.00
2023-09-23T01:11:48.635Z,0.00
2023-09-23T01:12:21.588Z,0.00
2023-09-23T01:12:52.825Z,0.00
2023-09-23T01:13:25.538Z,0.00
2023-09-23T01:13:56.696Z,0.00
2023-09-23T01:14:29.668Z,0.00
2023-09-23T01:15:02.169Z,0.00
2023-09-23T01:15:33.829Z,0.00
2023-09-23T01:16:04.691Z,0.00
2023-09-23T01:16:37.927Z,0.00
2023-09-23T01:17:08.654Z,0.00
2023-09-23T01:17:41.678Z,0.00
2023-09-23T01:18:12.768Z,0.00
2023-09-23T01:18:45.650Z,0.00
2023-09-23T01:19:16.655Z,0.00
2023-09-23T01:19:49.801Z,0.00
2023-09-23T01:20:20.942Z,0.00
2023-09-23T01:20:53.416Z,0.00
2023-09-23T01:21:24.740Z,0.00
2023-09-23T01:21:57.733Z,0.00
2023-09-23T01:22:28.573Z,0.00
2023-09-23T01:23:01.725Z,0.00
2023-09-23T01:23:32.742Z,0.00
2023-09-23T01:24:05.780Z,0.00
2023-09-23T01:24:36.563Z,0.00
2023-09-23T01:25:09.707Z,0.00
2023-09-23T01:25:40.754Z,0.00
2023-09-23T01:26:13.546Z,0.00
2023-09-23T01:26:44.691Z,0.00
2023-09-23T01:27:17.854Z,0.00
2023-09-23T01:27:48.719Z,0.00
2023-09-23T01:28:21.436Z,0.00
2023-09-23T01:28:52.683Z,0.00
2023-09-23T01:29:25.754Z,0.00
2023-09-23T01:29:56.672Z,0.00
2023-09-23T01:30:13.855Z,0.00
2023-09-23T01:30:44.675Z,0.00
2023-09-23T01:31:16.706Z,0.00
2023-09-23T01:31:48.736Z,0.00
2023-09-23T01:32:20.838Z,0.00
2023-09-23T01:32:52.683Z,0.00
2023-09-23T01:33:24.845Z,0.00
2023-09-23T01:33:56.693Z,0.00
2023-09-23T01:34:28.637Z,0.00
2023-09-23T01:35:01.987Z,0.00
2023-09-23T01:35:32.755Z,0.00
2023-09-23T01:36:05.555Z,0.00
2023-09-23T01:36:36.607Z,0.00
2023-09-23T01:37:09.722Z,0.00
2023-09-23T01:37:40.773Z,0.00
2023-09-23T01:38:13.495Z,0.00
2023-09-23T01:38:44.963Z,0.00
2023-09-23T01:39:17.629Z,0.00
2023-09-23T01:39:48.755Z,0.00
2023-09-23T01:40:21.896Z,0.00
2023-09-23T01:40:52.693Z,0.00
2023-09-23T01:41:25.743Z,0.00
2023-09-23T01:41:56.649Z,0.00
2023-09-23T01:42:12.786Z,0.00
2023-09-23T01:42:44.608Z,0.00
2023-09-23T01:43:16.687Z,0.00
2023-09-23T01:43:49.593Z,0.00
2023-09-23T01:44:20.788Z,0.00
2023-09-23T01:44:53.386Z,0.00
2023-09-23T01:45:25.749Z,0.00
2023-09-23T01:45:57.897Z,0.00
2023-09-23T01:46:28.667Z,0.00
2023-09-23T01:47:01.555Z,0.00
2023-09-23T01:47:32.998Z,0.00
2023-09-23T01:48:05.799Z,0.00
2023-09-23T01:48:36.664Z,0.00
2023-09-23T01:49:09.510Z,0.00
2023-09-23T01:49:40.779Z,0.00
2023-09-23T01:50:13.968Z,0.00
2023-09-23T01:50:44.672Z,0.00
2023-09-23T01:51:17.951Z,0.00
2023-09-23T01:51:48.601Z,0.00
2023-09-23T01:52:21.616Z,0.00
2023-09-23T01:52:52.769Z,0.00
2023-09-23T01:53:25.639Z,0.00
2023-09-23T01:53:56.687Z,0.00
2023-09-23T01:54:29.925Z,0.00
2023-09-23T01:55:01.680Z,0.00
2023-09-23T01:55:33.536Z,0.00
2023-09-23T01:56:04.683Z,0.00
2023-09-23T01:56:37.748Z,0.00
2023-09-23T01:57:08.649Z,0.00
2023-09-23T01:57:41.547Z,0.00
2023-09-23T01:58:12.707Z,0.00
2023-09-23T01:58:46.490Z,0.00
2023-09-23T01:59:16.695Z,0.00
2023-09-23T01:59:49.569Z,0.00
2023-09-23T02:00:22.397Z,0.00
2023-09-23T02:00:53.514Z,0.00
2023-09-23T02:01:24.709Z,0.00
2023-09-23T02:01:57.700Z,0.00
2023-09-23T02:02:29.008Z,0.00
2023-09-23T02:03:01.727Z,0.00
2023-09-23T02:03:32.798Z,0.00
2023-09-23T02:04:05.661Z,0.00
2023-09-23T02:04:36.628Z,0.00
2023-09-23T02:05:09.783Z,0.00
2023-09-23T02:05:40.784Z,0.00
2023-09-23T02:06:13.810Z,0.00
2023-09-23T02:06:44.674Z,0.00
2023-09-23T02:07:17.770Z,0.00
2023-09-23T02:07:48.846Z,0.00
2023-09-23T02:08:21.516Z,0.00
2023-09-23T02:08:52.667Z,0.00
2023-09-23T02:09:25.543Z,0.00
2023-09-23T02:09:56.778Z,0.00
2023-09-23T02:10:29.978Z,0.00
2023-09-23T02:11:00.738Z,0.00
2023-09-23T02:11:33.606Z,0.00
2023-09-23T02:12:04.580Z,0.00
2023-09-23T02:12:38.021Z,0.00
2023-09-23T02:13:08.725Z,0.00
2023-09-23T02:13:41.686Z,0.00
2023-09-23T02:14:12.704Z,0.00
2023-09-23T02:14:45.511Z,0.00
2023-09-23T02:15:17.820Z,0.00
2023-09-23T02:15:49.704Z,0.00
2023-09-23T02:16:20.745Z,0.00
2023-09-23T02:16:53.690Z,0.00
2023-09-23T02:17:24.832Z,0.00
2023-09-23T02:17:57.747Z,0.00
2023-09-23T02:18:28.889Z,0.00
2023-09-23T02:19:01.731Z,0.00
2023-09-23T02:19:32.630Z,0.00
2023-09-23T02:20:05.801Z,0.00
2023-09-23T02:20:36.764Z,0.00
2023-09-23T02:21:09.546Z,0.00
2023-09-23T02:21:40.739Z,0.00
2023-09-23T02:22:13.772Z,0.00
2023-09-23T02:22:44.856Z,0.00
2023-09-23T02:23:19.089Z,0.00
2023-09-23T02:23:48.678Z,0.00
2023-09-23T02:24:21.608Z,0.00
2023-09-23T02:24:52.849Z,0.00
2023-09-23T02:25:26.438Z,0.00
2023-09-23T02:25:56.786Z,0.00
2023-09-23T02:26:29.717Z,0.00
2023-09-23T02:27:00.692Z,0.00
2023-09-23T02:27:33.759Z,0.00
2023-09-23T02:28:04.733Z,0.00
2023-09-23T02:28:38.038Z,0.00
2023-09-23T02:29:08.645Z,0.00
2023-09-23T02:29:41.691Z,0.00
2023-09-23T02:30:13.976Z,0.00
2023-09-23T02:30:46.642Z,0.00
2023-09-23T02:31:16.773Z,0.00
2023-09-23T02:31:49.575Z,0.00
2023-09-23T02:32:20.883Z,0.00
2023-09-23T02:32:53.593Z,0.00
2023-09-23T02:33:24.703Z,0.00
2023-09-23T02:33:57.745Z,0.00
2023-09-23T02:34:28.680Z,0.00
2023-09-23T02:35:02.244Z,0.00
2023-09-23T02:35:32.761Z,0.00
2023-09-23T02:36:05.470Z,0.00
2023-09-23T02:36:36.728Z,0.00
2023-09-23T02:37:09.723Z,0.00
2023-09-23T02:37:40.934Z,0.00
2023-09-23T02:38:13.654Z,0.00
2023-09-23T02:38:45.020Z,0.00
2023-09-23T02:39:17.863Z,0.00
2023-09-23T02:39:48.644Z,0.00
2023-09-23T02:40:22.011Z,0.00
2023-09-23T02:40:52.753Z,0.00
2023-09-23T02:41:25.712Z,0.00
2023-09-23T02:41:56.708Z,0.00
2023-09-23T02:42:30.651Z,0.00
2023-09-23T02:43:00.844Z,0.00
2023-09-23T02:43:33.524Z,0.00
2023-09-23T02:44:04.752Z,0.00
2023-09-23T02:44:37.902Z,0.00
2023-09-23T02:45:09.811Z,0.00
2023-09-23T02:45:41.951Z,0.00
2023-09-23T02:46:12.739Z,0.00
2023-09-23T02:46:45.787Z,0.00
2023-09-23T02:47:16.746Z,0.00
2023-09-23T02:47:49.623Z,0.00
2023-09-23T02:48:20.837Z,0.00
2023-09-23T02:48:53.588Z,0.00
2023-09-23T02:49:24.639Z,0.00
2023-09-23T02:49:57.841Z,0.00
2023-09-23T02:50:29.280Z,0.00
2023-09-23T02:51:01.733Z,0.00
2023-09-23T02:51:32.686Z,0.00
2023-09-23T02:52:05.881Z,0.00
2023-09-23T02:52:36.790Z,0.00
2023-09-23T02:53:09.614Z,0.00
2023-09-23T02:53:40.728Z,0.00
2023-09-23T02:54:13.656Z,0.00
2023-09-23T02:54:44.639Z,0.00
2023-09-23T02:55:18.047Z,0.00
2023-09-23T02:55:48.837Z,0.00
2023-09-23T02:56:21.530Z,0.00
2023-09-23T02:56:52.639Z,0.00
2023-09-23T02:57:25.863Z,0.00
2023-09-23T02:57:56.869Z,0.00
2023-09-23T02:58:29.621Z,0.00
2023-09-23T02:59:00.727Z,0.00
2023-09-23T02:59:33.564Z,0.00
2023-09-23T03:00:06.442Z,0.00
2023-09-23T03:00:37.686Z,0.00
2023-09-23T03:01:08.797Z,0.00
2023-09-23T03:01:41.775Z,0.00
2023-09-23T03:02:12.824Z,0.00
2023-09-23T03:02:45.863Z,0.00
2023-09-23T03:03:16.859Z,0.00
2023-09-23T03:03:49.638Z,0.00
2023-09-23T03:04:20.716Z,0.00
2023-09-23T03:04:53.826Z,0.00
2023-09-23T03:05:24.945Z,0.00
2023-09-23T03:05:57.627Z,0.00
2023-09-23T03:06:28.720Z,0.00
2023-09-23T03:07:01.869Z,0.00
2023-09-23T03:07:33.618Z,0.00
2023-09-23T03:08:05.753Z,0.00
2023-09-23T03:08:36.829Z,0.00
2023-09-23T03:09:09.544Z,0.00
2023-09-23T03:09:40.764Z,0.00
2023-09-23T03:10:13.971Z,0.00
2023-09-23T03:10:44.922Z,0.00
2023-09-23T03:11:17.613Z,0.00
2023-09-23T03:11:48.764Z,0.00
2023-09-23T03:12:21.679Z,0.00
2023-09-23T03:12:52.684Z,0.00
2023-09-23T03:13:25.670Z,0.00
2023-09-23T03:13:56.762Z,0.00
2023-09-23T03:14:29.712Z,0.00
2023-09-23T03:15:02.182Z,0.00
2023-09-23T03:15:33.869Z,0.00
2023-09-23T03:16:04.996Z,0.00
2023-09-23T03:16:37.575Z,0.00
2023-09-23T03:17:08.852Z,0.00
2023-09-23T03:17:41.769Z,0.00
2023-09-23T03:18:12.865Z,0.00
2023-09-23T03:18:45.885Z,0.00
2023-09-23T03:19:16.690Z,0.00
2023-09-23T03:19:49.784Z,0.00
2023-09-23T03:20:21.103Z,0.00
2023-09-23T03:20:53.582Z,0.00
2023-09-23T03:21:24.786Z,0.00
2023-09-23T03:21:57.752Z,0.00
2023-09-23T03:22:28.754Z,0.00
2023-09-23T03:23:01.766Z,0.00
2023-09-23T03:23:32.884Z,0.00
2023-09-23T03:24:05.594Z,0.00
2023-09-23T03:24:36.710Z,0.00
2023-09-23T03:25:09.977Z,0.00
2023-09-23T03:25:40.874Z,0.00
2023-09-23T03:26:13.589Z,0.00
2023-09-23T03:26:44.715Z,0.00
2023-09-23T03:27:17.783Z,0.00
2023-09-23T03:27:48.684Z,0.00
2023-09-23T03:28:21.696Z,0.00
2023-09-23T03:28:52.830Z,0.00
2023-09-23T03:29:25.700Z,0.00
2023-09-23T03:29:56.713Z,0.00
2023-09-23T03:30:30.826Z,0.00
2023-09-23T03:31:00.872Z,0.00
2023-09-23T03:31:33.665Z,0.00
2023-09-23T03:32:04.814Z,0.00
2023-09-23T03:32:38.044Z,0.00
2023-09-23T03:33:08.750Z,0.00
2023-09-23T03:33:41.498Z,0.00
2023-09-23T03:34:12.813Z,0.00
2023-09-23T03:34:45.877Z,0.00
2023-09-23T03:35:17.183Z,0.00
2023-09-23T03:35:49.568Z,0.00
2023-09-23T03:36:20.779Z,0.00
2023-09-23T03:36:53.647Z,0.00
2023-09-23T03:37:24.736Z,0.00
2023-09-23T03:37:57.624Z,0.00
2023-09-23T03:38:29.663Z,0.00
2023-09-23T03:39:01.589Z,0.00
2023-09-23T03:39:32.725Z,0.00
2023-09-23T03:40:05.931Z,0.00
2023-09-23T03:40:36.638Z,0.00
2023-09-23T03:41:09.711Z,0.00
2023-09-23T03:41:40.841Z,0.00
2023-09-23T03:42:13.998Z,0.00
2023-09-23T03:42:44.696Z,0.00
2023-09-23T03:43:17.570Z,0.00
2023-09-23T03:43:48.829Z,0.00
2023-09-23T03:44:21.554Z,0.00
2023-09-23T03:44:52.706Z,0.00
2023-09-23T03:45:27.682Z,0.00
2023-09-23T03:45:56.861Z,0.00
2023-09-23T03:46:29.864Z,0.00
2023-09-23T03:47:00.826Z,0.00
2023-09-23T03:47:33.827Z,0.00
2023-09-23T03:48:04.710Z,0.00
2023-09-23T03:48:37.884Z,0.00
2023-09-23T03:49:08.788Z,0.00
2023-09-23T03:49:42.788Z,0.00
2023-09-23T03:50:13.015Z,0.00
2023-09-23T03:50:45.590Z,0.00
2023-09-23T03:51:16.877Z,0.00
2023-09-23T03:51:49.480Z,0.00
2023-09-23T03:52:20.742Z,0.00
2023-09-23T03:52:53.745Z,0.00
2023-09-23T03:53:25.083Z,0.00
2023-09-23T03:53:57.547Z,0.00
2023-09-23T03:54:29.100Z,0.00
2023-09-23T03:55:02.794Z,0.00
2023-09-23T03:55:32.663Z,0.00
2023-09-23T03:56:05.712Z,0.00
2023-09-23T03:56:36.806Z,0.00
2023-09-23T03:57:09.754Z,0.00
2023-09-23T03:57:40.667Z,0.00
2023-09-23T03:58:13.644Z,0.00
2023-09-23T03:58:45.293Z,0.00
2023-09-23T03:59:17.675Z,0.00
2023-09-23T03:59:48.802Z,0.00
2023-09-23T04:00:22.897Z,0.00
2023-09-23T04:00:52.915Z,0.00
2023-09-23T04:01:25.752Z,0.00
2023-09-23T04:01:56.806Z,0.00
2023-09-23T04:02:29.802Z,0.00
2023-09-23T04:03:00.720Z,0.00
2023-09-23T04:03:33.644Z,0.00
2023-09-23T04:04:04.847Z,0.00
2023-09-23T04:04:37.622Z,0.00
2023-09-23T04:05:09.073Z,0.00
2023-09-23T04:05:41.653Z,0.00
2023-09-23T04:06:12.888Z,0.00
2023-09-23T04:06:45.650Z,0.00
2023-09-23T04:07:16.767Z,0.00
2023-09-23T04:07:49.743Z,0.00
2023-09-23T04:08:20.646Z,0.00
2023-09-23T04:08:53.611Z,0.00
2023-09-23T04:09:24.804Z,0.00
2023-09-23T04:09:57.566Z,0.00
2023-09-23T04:10:29.135Z,0.00
2023-09-23T04:11:01.829Z,0.00
2023-09-23T04:11:32.850Z,0.00
2023-09-23T04:12:05.828Z,0.00
2023-09-23T04:12:36.736Z,0.00
2023-09-23T04:13:09.661Z,0.00
2023-09-23T04:13:40.747Z,0.00
2023-09-23T04:14:13.737Z,0.00
2023-09-23T04:14:44.876Z,0.00
2023-09-23T04:15:18.781Z,0.00
2023-09-23T04:15:48.951Z,0.00
2023-09-23T04:16:21.747Z,0.00
2023-09-23T04:16:52.955Z,0.00
2023-09-23T04:17:25.883Z,0.00
2023-09-23T04:17:56.961Z,0.00
2023-09-23T04:18:29.712Z,0.00
2023-09-23T04:19:00.781Z,0.00
2023-09-23T04:19:33.678Z,0.00
2023-09-23T04:20:05.129Z,0.00
2023-09-23T04:20:38.030Z,0.00
2023-09-23T04:21:08.725Z,0.00
2023-09-23T04:21:41.713Z,0.00
2023-09-23T04:22:12.867Z,0.00
2023-09-23T04:22:46.910Z,0.00
2023-09-23T04:23:16.785Z,0.00
2023-09-23T04:23:49.725Z,0.00
2023-09-23T04:24:20.886Z,0.00
2023-09-23T04:24:53.565Z,0.00
2023-09-23T04:25:25.139Z,0.00
2023-09-23T04:25:57.653Z,0.00
2023-09-23T04:26:28.691Z,0.00
2023-09-23T04:27:01.650Z,0.00
2023-09-23T04:27:32.828Z,0.00
2023-09-23T04:28:05.917Z,0.00
2023-09-23T04:28:36.720Z,0.00
2023-09-23T04:29:09.684Z,0.00
2023-09-23T04:29:40.856Z,0.00
2023-09-23T04:30:14.854Z,0.00
2023-09-23T04:30:45.024Z,0.00
2023-09-23T04:31:17.640Z,0.00
2023-09-23T04:31:48.939Z,0.00
2023-09-23T04:32:21.775Z,0.00
2023-09-23T04:32:52.877Z,0.00
2023-09-23T04:33:25.896Z,0.00
2023-09-23T04:33:56.751Z,0.00
2023-09-23T04:34:29.817Z,0.00
2023-09-23T04:35:01.306Z,0.00
2023-09-23T04:35:33.546Z,0.00
2023-09-23T04:36:04.830Z,0.00
2023-09-23T04:36:37.940Z,0.00
2023-09-23T04:37:08.930Z,0.00
2023-09-23T04:37:41.789Z,0.00
2023-09-23T04:38:12.894Z,0.00
2023-09-23T04:38:45.927Z,0.00
2023-09-23T04:39:16.618Z,0.00
2023-09-23T04:39:50.594Z,0.00
2023-09-23T04:40:21.216Z,0.00
2023-09-23T04:40:53.747Z,0.00
2023-09-23T04:41:24.796Z,0.00
2023-09-23T04:41:57.747Z,0.00
2023-09-23T04:42:28.911Z,0.00
2023-09-23T04:43:01.619Z,0.00
2023-09-23T04:43:32.767Z,0.00
2023-09-23T04:44:05.904Z,0.00
2023-09-23T04:44:36.859Z,0.00
2023-09-23T04:45:10.973Z,0.00
2023-09-23T04:45:40.951Z,0.00
2023-09-23T04:46:13.745Z,0.00
2023-09-23T04:46:44.681Z,0.00
2023-09-23T04:47:17.869Z,0.00
2023-09-23T04:47:48.803Z,0.00
2023-09-23T04:48:21.614Z,0.00
2023-09-23T04:48:52.732Z,0.00
2023-09-23T04:49:26.640Z,0.00
2023-09-23T04:49:56.820Z,0.00
2023-09-23T04:50:30.089Z,0.00
2023-09-23T04:51:00.822Z,0.00
2023-09-23T04:51:34.553Z,0.00
2023-09-23T04:52:04.796Z,0.00
2023-09-23T04:52:38.048Z,0.00
2023-09-23T04:53:08.977Z,0.00
2023-09-23T04:53:41.853Z,0.00
2023-09-23T04:54:12.710Z,0.00
2023-09-23T04:54:45.793Z,0.00
2023-09-23T04:55:17.097Z,0.00
2023-09-23T04:55:49.706Z,0.00
2023-09-23T04:56:20.822Z,0.00
2023-09-23T04:56:53.725Z,0.00
2023-09-23T04:57:24.819Z,0.00
2023-09-23T04:57:58.778Z,0.00
2023-09-23T04:58:28.788Z,0.00
2023-09-23T04:59:01.985Z,0.00
2023-09-23T04:59:32.725Z,0.00
2023-09-23T05:00:07.101Z,0.00
2023-09-23T05:00:36.829Z,0.00
2023-09-23T05:01:09.735Z,0.00
2023-09-23T05:01:40.725Z,0.00
2023-09-23T05:02:13.843Z,0.00
2023-09-23T05:02:44.860Z,0.00
2023-09-23T05:03:17.567Z,0.00
2023-09-23T05:03:48.748Z,0.00
2023-09-23T05:04:22.701Z,0.00
2023-09-23T05:04:53.192Z,1.18
2023-09-23T05:05:26.346Z,0.00
2023-09-23T05:05:56.938Z,0.00
2023-09-23T05:06:30.003Z,1.18
2023-09-23T05:07:00.977Z,1.18
2023-09-23T05:07:34.759Z,1.18
2023-09-23T05:08:05.088Z,1.18
2023-09-23T05:08:37.883Z,1.18
2023-09-23T05:09:08.978Z,1.18
2023-09-23T05:09:41.863Z,2.45
2023-09-23T05:10:13.376Z,1.18
2023-09-23T05:10:45.794Z,1.18
2023-09-23T05:11:17.039Z,2.45
2023-09-23T05:11:49.897Z,2.45
2023-09-23T05:12:20.834Z,2.45
2023-09-23T05:12:53.903Z,2.45
2023-09-23T05:13:24.990Z,3.63
2023-09-23T05:13:57.900Z,3.63
2023-09-23T05:14:28.941Z,3.63
2023-09-23T05:15:03.507Z,3.63
2023-09-23T05:15:33.186Z,3.63
2023-09-23T05:16:05.688Z,3.63
2023-09-23T05:16:36.950Z,3.63
2023-09-23T05:17:10.037Z,4.89
2023-09-23T05:17:41.125Z,4.89
2023-09-23T05:18:13.794Z,4.89
2023-09-23T05:18:45.364Z,4.89
2023-09-23T05:19:19.072Z,4.89
2023-09-23T05:19:48.961Z,4.89
2023-09-23T05:20:22.208Z,6.08
2023-09-23T05:20:53.062Z,4.89
2023-09-23T05:21:26.223Z,7.34
2023-09-23T05:21:56.891Z,6.08
2023-09-23T05:22:29.983Z,7.34
2023-09-23T05:23:01.126Z,6.08
2023-09-23T05:23:33.828Z,7.34
2023-09-23T05:24:04.985Z,7.34
2023-09-23T05:24:37.757Z,7.34
2023-09-23T05:25:09.473Z,8.52
2023-09-23T05:25:41.757Z,8.52
2023-09-23T05:26:13.116Z,8.52
2023-09-23T05:26:46.073Z,9.79
2023-09-23T05:27:16.891Z,8.52
2023-09-23T05:27:49.743Z,9.79
2023-09-23T05:28:20.994Z,9.79
2023-09-23T05:28:54.083Z,9.79
2023-09-23T05:29:24.935Z,9.79
2023-09-23T05:29:57.841Z,9.79
2023-09-23T05:30:30.116Z,10.97
2023-09-23T05:31:03.060Z,10.97
2023-09-23T05:31:33.109Z,12.23
2023-09-23T05:32:06.081Z,12.23
2023-09-23T05:32:36.949Z,12.23
2023-09-23T05:33:09.959Z,12.23
2023-09-23T05:33:41.083Z,13.42
2023-09-23T05:34:15.034Z,13.42
2023-09-23T05:35:18.377Z,14.68
2023-09-23T05:35:49.139Z,14.68
2023-09-23T05:36:21.825Z,14.68
2023-09-23T05:36:53.014Z,14.68
2023-09-23T05:37:26.103Z,14.68
2023-09-23T05:37:57.058Z,14.68
2023-09-23T05:38:29.999Z,15.86
2023-09-23T05:39:01.099Z,17.13
2023-09-23T05:39:33.969Z,18.31
2023-09-23T05:40:05.277Z,19.57
2023-09-23T05:40:38.979Z,19.57
2023-09-23T05:41:09.195Z,22.02
2023-09-23T05:41:43.768Z,22.02
2023-09-23T05:42:13.011Z,23.20
2023-09-23T05:42:46.205Z,22.02
2023-09-23T05:43:16.922Z,22.02
2023-09-23T05:43:49.824Z,23.20
2023-09-23T05:44:21.064Z,24.47
2023-09-23T05:44:53.952Z,24.47
2023-09-23T05:45:26.955Z,24.47
2023-09-23T05:45:57.997Z,24.47
2023-09-23T05:46:29.254Z,26.91
2023-09-23T05:47:04.163Z,26.91
2023-09-23T05:47:32.996Z,26.91
2023-09-23T05:48:06.176Z,26.91
2023-09-23T05:48:37.084Z,28.10
2023-09-23T05:49:09.713Z,28.10
2023-09-23T05:49:41.034Z,28.10
2023-09-23T05:50:14.385Z,28.10
2023-09-23T05:50:44.946Z,29.36
2023-09-23T05:51:17.830Z,29.36
2023-09-23T05:51:49.059Z,29.36
2023-09-23T05:52:23.109Z,30.54
2023-09-23T05:52:53.027Z,30.54
2023-09-23T05:53:25.939Z,31.81
2023-09-23T05:53:57.084Z,31.81
2023-09-23T05:54:30.407Z,31.81
2023-09-23T05:55:02.054Z,32.99
2023-09-23T05:55:33.805Z,36.70
2023-09-23T05:56:05.188Z,37.88
2023-09-23T05:56:37.959Z,39.15
2023-09-23T05:57:09.059Z,39.15
2023-09-23T05:57:42.181Z,39.15
2023-09-23T05:58:12.924Z,40.33
2023-09-23T05:58:45.910Z,41.59
2023-09-23T05:59:17.028Z,42.78
2023-09-23T05:59:51.845Z,42.78
2023-09-23T06:00:22.123Z,44.04
2023-09-23T06:00:53.886Z,45.22
2023-09-23T06:01:25.247Z,45.22
2023-09-23T06:01:57.924Z,47.67
2023-09-23T06:02:29.110Z,50.12
2023-09-23T06:03:03.192Z,50.12
2023-09-23T06:03:33.168Z,50.12
2023-09-23T06:04:05.945Z,48.93
2023-09-23T06:04:37.019Z,50.12
2023-09-23T06:05:10.159Z,53.83
2023-09-23T06:05:40.963Z,53.83
2023-09-23T06:06:13.814Z,55.01
2023-09-23T06:06:45.128Z,55.01
2023-09-23T06:07:18.215Z,57.46
2023-09-23T06:07:49.040Z,58.72
2023-09-23T06:08:21.935Z,58.72
2023-09-23T06:08:53.072Z,58.72
2023-09-23T06:09:26.889Z,59.91
2023-09-23T06:09:56.949Z,61.17
2023-09-23T06:10:30.377Z,61.17
2023-09-23T06:11:01.218Z,61.17
2023-09-23T06:11:33.772Z,62.35
2023-09-23T06:12:05.022Z,63.61
2023-09-23T06:12:38.235Z,66.06
2023-09-23T06:13:08.998Z,69.69
2023-09-23T06:13:41.905Z,73.40
2023-09-23T06:14:13.172Z,77.03
2023-09-23T06:14:46.044Z,79.48
2023-09-23T06:15:18.158Z,79.48
2023-09-23T06:15:50.096Z,79.48
2023-09-23T06:16:21.227Z,80.74
2023-09-23T06:16:53.920Z,83.19
2023-09-23T06:17:25.072Z,84.37
2023-09-23T06:17:58.183Z,84.37
2023-09-23T06:18:28.993Z,84.37
2023-09-23T06:19:01.958Z,86.82
2023-09-23T06:19:33.012Z,90.53
2023-09-23T06:20:06.121Z,90.53
2023-09-23T06:20:36.994Z,89.27
2023-09-23T06:21:09.979Z,88.08
2023-09-23T06:21:41.156Z,88.08
2023-09-23T06:22:14.061Z,86.82
2023-09-23T06:22:45.014Z,85.64
2023-09-23T06:23:17.884Z,86.82
2023-09-23T06:23:49.280Z,86.82
2023-09-23T06:24:21.860Z,85.64
2023-09-23T06:24:53.038Z,83.19
2023-09-23T06:25:26.435Z,78.30
2023-09-23T06:25:57.156Z,88.08
2023-09-23T06:26:30.008Z,88.08
2023-09-23T06:27:01.176Z,86.82
2023-09-23T06:27:33.894Z,85.64
2023-09-23T06:28:04.940Z,86.82
2023-09-23T06:28:37.945Z,88.08
2023-09-23T06:29:09.136Z,90.53
2023-09-23T06:29:41.879Z,90.53
2023-09-23T06:30:14.107Z,90.53
2023-09-23T06:30:46.182Z,91.71
2023-09-23T06:31:16.933Z,92.98
2023-09-23T06:31:49.944Z,92.98
2023-09-23T06:32:20.997Z,94.16
2023-09-23T06:32:53.979Z,91.71
2023-09-23T06:33:25.020Z,90.53
2023-09-23T06:33:57.813Z,91.71
2023-09-23T06:34:29.173Z,92.98
2023-09-23T06:35:04.004Z,92.98
2023-09-23T06:35:33.051Z,95.42
2023-09-23T06:36:05.968Z,97.87
2023-09-23T06:36:36.898Z,100.32
2023-09-23T06:37:10.910Z,102.76
2023-09-23T06:37:41.102Z,103.95
2023-09-23T06:38:13.949Z,103.95
2023-09-23T06:38:45.033Z,106.39
2023-09-23T06:39:17.814Z,106.39
2023-09-23T06:39:49.175Z,106.39
2023-09-23T06:40:23.045Z,106.39
2023-09-23T06:40:53.152Z,106.39
2023-09-23T06:41:25.939Z,110.10
2023-09-23T06:41:57.032Z,111.29
2023-09-23T06:42:30.148Z,112.55
2023-09-23T06:43:01.068Z,113.73
2023-09-23T06:43:33.943Z,115.00
2023-09-23T06:44:05.055Z,115.00
2023-09-23T06:44:38.147Z,117.44
2023-09-23T06:45:10.365Z,118.63
2023-09-23T06:45:42.120Z,118.63
2023-09-23T06:46:13.433Z,121.07
2023-09-23T06:46:46.484Z,122.34
2023-09-23T06:47:17.365Z,123.52
2023-09-23T06:47:50.369Z,127.23
2023-09-23T06:48:21.466Z,130.86
2023-09-23T06:48:54.171Z,132.12
2023-09-23T06:49:25.360Z,132.12
2023-09-23T06:49:58.244Z,140.65
2023-09-23T06:50:29.696Z,145.54
2023-09-23T06:51:02.344Z,150.43
2023-09-23T06:51:33.350Z,154.14
2023-09-23T06:52:06.425Z,157.77
2023-09-23T06:52:37.258Z,159.04
2023-09-23T06:53:10.209Z,156.59
2023-09-23T06:53:42.270Z,151.70
2023-09-23T06:54:14.110Z,146.80
2023-09-23T06:54:45.487Z,138.20
2023-09-23T06:55:18.659Z,138.20
2023-09-23T06:55:49.467Z,119.89
2023-09-23T06:56:22.161Z,140.65
2023-09-23T06:56:53.383Z,141.91
2023-09-23T06:57:27.231Z,143.09
2023-09-23T06:57:57.314Z,134.57
2023-09-23T06:58:29.849Z,79.48
2023-09-23T06:59:01.140Z,85.64
2023-09-23T06:59:34.012Z,84.37
2023-09-23T07:00:06.541Z,78.30
2023-09-23T07:00:37.829Z,111.29
2023-09-23T07:01:09.551Z,157.77
2023-09-23T07:01:42.123Z,157.77